Time;durP1;ratioP1;P1;durP2;ratioP2;P2;SDS_P1;SDS_P2;PMS_P1;PMS_P2;Temp;Humidity;BMP_temperature;BMP_pressure;BME280_temperature;BME280_humidity;BME280_pressure;Samples;Min_cycle;Max_cycle;Signal;HPM_P1;HPM_P2
2023/05/08 00:02:00;;;;;;;;;;;;;;;;;;4937253;29;2010;-54
2023/05/08 00:04:29;;;;;;;;;;;;;;;;;;4937038;29;1807;-56
2023/05/08 00:06:58;;;;;;;;;;;;;;;;;;4937160;29;1968;-57
2023/05/08 00:09:25;;;;;;;;;;;;;;;;;;4936995;29;1467;-56
2023/05/08 00:11:52;;;;;;;;;;;;;;;;;;4936768;29;1970;-39
2023/05/08 00:14:19;;;;;;;;;;;;;;;;;;4937038;29;1673;-39
2023/05/08 00:16:47;;;;;;;;;;;;;;;;;;4937151;29;1843;-39
2023/05/08 00:19:14;;;;;;;;;;;;;;;;;;4937115;29;2179;-39
2023/05/08 00:21:41;;;;;;;;;;;;;;;;;;4937224;29;1974;-39
2023/05/08 00:24:08;;;;;;;;;;;;;;;;;;4936914;29;2105;-56
2023/05/08 00:26:35;;;;;;;;;;;;;;;;;;4936855;29;1946;-50
2023/05/08 00:29:02;;;;;;;;;;;;;;;;;;4936893;29;1542;-57
2023/05/08 00:31:32;;;;;;;;;;;;;;;;;;4935296;29;2047;-53
2023/05/08 00:33:59;;;;;;;;;;;;;;;;;;4936903;29;1859;-39
2023/05/08 00:36:27;;;;;;;;;;;;;;;;;;4936607;29;2384;-46
2023/05/08 00:38:54;;;;;;;;;;;;;;;;;;4936437;29;1898;-55
2023/05/08 00:41:21;;;;;;;;;;;;;;;;;;4936512;29;1957;-55
2023/05/08 00:43:48;;;;;;;;;;;;;;;;;;4936430;29;1829;-58
2023/05/08 00:46:16;;;;;;;;;;;;;;;;;;4935352;29;1796;-51
2023/05/08 00:48:44;;;;;;;;;;;;;;;;;;4936513;29;2084;-53
2023/05/08 00:51:11;;;;;;;;;;;;;;;;;;4935159;29;1875;-54
2023/05/08 00:53:39;;;;;;;;;;;;;;;;;;4936206;29;2243;-57
2023/05/08 00:56:08;;;;;;;;;;;;;;;;;;4936349;29;1633;-57
2023/05/08 00:58:36;;;;;;;;;;;;;;;;;;4936357;29;1946;-42
2023/05/08 01:01:04;;;;;;;;;;;;;;;;;;4936025;29;1627;-56
2023/05/08 01:03:34;;;;;;;;;;;;;;;;;;4935797;29;1833;-49
2023/05/08 01:06:02;;;;;;;;;;;;;;;;;;4935890;29;1779;-54
2023/05/08 01:08:30;;;;;;;;;;;;;;;;;;4935997;29;2088;-55
2023/05/08 01:11:17;;;;;;;;;;;;;;;;;;4935011;29;1589;-57
2023/05/08 01:13:48;;;;;;;;;;;;;;;;;;4944361;29;1348;-56
2023/05/08 01:16:35;;;;;;;;;;;;;;;;;;4936052;29;1243;-57
2023/05/08 01:19:02;;;;;;;;;;;;;;;;;;4938294;29;1906;-40
2023/05/08 01:21:38;;;;;;;;;;;;;;;;;;4935622;29;2065;-58
2023/05/08 01:24:06;;;;;;;;;;;;;;;;;;4935881;29;1887;-43
2023/05/08 01:26:59;;;;;;;;;;;;;;;;;;4935589;29;1504;-56
2023/05/08 01:29:47;;;;;;;;;;;;;;;;;;4933828;29;1631;-52
2023/05/08 01:32:22;;;;;;;;;;;;;;;;;;4935411;29;1988;-48
2023/05/08 01:35:08;;;;;;;;;;;;;;;;;;4935766;29;1625;-48
2023/05/08 01:37:44;;;;;;;;;;;;;;;;;;4934260;29;1995;-57
2023/05/08 01:40:17;;;;;;;;;;;;;;;;;;4935280;29;1540;-54
2023/05/08 01:42:47;;;;;;;;;;;;;;;;;;4935457;29;1916;-53
2023/05/08 01:45:25;;;;;;;;;;;;;;;;;;4934293;29;1838;-39
2023/05/08 01:48:03;;;;;;;;;;;;;;;;;;4935201;29;2165;-56
2023/05/08 01:50:34;;;;;;;;;;;;;;;;;;4935313;29;2077;-44
2023/05/08 01:53:04;;;;;;;;;;;;;;;;;;4919864;29;2186;-46
2023/05/08 01:55:34;;;;;;;;;;;;;;;;;;4933934;29;2080;-56
2023/05/08 01:58:06;;;;;;;;;;;;;;;;;;4934102;29;2024;-49
2023/05/08 02:00:33;;;;;;;;;;;;;;;;;;4933975;29;1897;-48
2023/05/08 02:03:04;;;;;;;;;;;;;;;;;;4933907;29;2013;-54
2023/05/08 02:05:32;;;;;;;;;;;;;;;;;;4934945;29;1781;-39
2023/05/08 02:08:00;;;;;;;;;;;;;;;;;;4933875;29;2037;-52
2023/05/08 02:10:27;;;;;;;;;;;;;;;;;;4933708;29;1961;-57
2023/05/08 02:12:55;;;;;;;;;;;;;;;;;;4933297;29;1900;-39
2023/05/08 02:15:23;;;;;;;;;;;;;;;;;;4933693;29;1992;-47
2023/05/08 02:17:51;;;;;;;;;;;;;;;;;;4934964;29;2244;-58
2023/05/08 02:20:20;;;;;;;;;;;;;;;;;;4934805;29;2110;-39
2023/05/08 02:22:49;;;;;;;;;;;;;;;;;;4934021;29;2077;-42
2023/05/08 02:25:16;;;;;;;;;;;;;;;;;;4934879;29;1742;-58
2023/05/08 02:27:44;;;;;;;;;;;;;;;;;;4933508;29;2096;-59
2023/05/08 02:30:13;;;;;;;;;;;;;;;;;;4934629;29;1935;-40
2023/05/08 02:32:42;;;;;;;;;;;;;;;;;;4933491;29;1722;-46
2023/05/08 02:35:17;;;;;;;;;;;;;;;;;;4934819;29;1930;-52
2023/05/08 02:37:46;;;;;;;;;;;;;;;;;;4933260;29;2265;-40
2023/05/08 02:40:16;;;;;;;;;;;;;;;;;;4934500;29;1801;-40
2023/05/08 02:42:43;;;;;;;;;;;;;;;;;;4934084;29;1906;-58
2023/05/08 02:45:12;;;;;;;;;;;;;;;;;;4932760;29;1498;-57
2023/05/08 02:47:45;;;;;;;;;;;;;;;;;;4932901;29;2032;-55
2023/05/08 02:50:17;;;;;;;;;;;;;;;;;;4933130;29;2255;-55
2023/05/08 02:52:47;;;;;;;;;;;;;;;;;;4934244;29;1861;-58
2023/05/08 02:55:18;;;;;;;;;;;;;;;;;;4932809;29;1638;-54
2023/05/08 02:57:47;;;;;;;;;;;;;;;;;;4934427;29;2059;-54
2023/05/08 03:00:17;;;;;;;;;;;;;;;;;;4934325;29;1674;-55
2023/05/08 03:03:00;;;;;;;;;;;;;;;;;;4932600;29;2265;-50
2023/05/08 03:05:32;;;;;;;;;;;;;;;;;;4913669;29;1937;-51
2023/05/08 03:08:02;;;;;;;;;;;;;;;;;;4914944;29;1831;-47
2023/05/08 03:10:34;;;;;;;;;;;;;;;;;;4915131;29;1845;-53
2023/05/08 03:13:05;;;;;;;;;;;;;;;;;;4913593;29;1952;-50
2023/05/08 03:15:44;;;;;;;;;;;;;;;;;;4933519;29;1778;-43
2023/05/08 03:18:18;;;;;;;;;;;;;;;;;;4933938;29;1656;-57
2023/05/08 03:20:47;;;;;;;;;;;;;;;;;;4932740;29;1649;-53
2023/05/08 03:23:14;;;;;;;;;;;;;;;;;;4932623;29;1911;-47
2023/05/08 03:25:42;;;;;;;;;;;;;;;;;;4928461;29;2093;-53
2023/05/08 03:28:11;;;;;;;;;;;;;;;;;;4914807;29;2044;-53
2023/05/08 03:30:39;;;;;;;;;;;;;;;;;;4913710;29;1928;-57
2023/05/08 03:33:10;;;;;;;;;;;;;;;;;;4913635;29;1680;-52
2023/05/08 03:35:38;;;;;;;;;;;;;;;;;;4917873;29;1935;-50
2023/05/08 03:38:07;;;;;;;;;;;;;;;;;;4917370;29;1941;-52
2023/05/08 03:40:38;;;;;;;;;;;;;;;;;;4933146;29;1819;-54
2023/05/08 03:43:09;;;;;;;;;;;;;;;;;;4918478;29;2020;-50
2023/05/08 03:45:37;;;;;;;;;;;;;;;;;;4918743;29;1702;-51
2023/05/08 03:48:05;;;;;;;;;;;;;;;;;;4917230;29;2044;-50
2023/05/08 03:50:34;;;;;;;;;;;;;;;;;;4917337;29;1744;-56
2023/05/08 03:53:02;;;;;;;;;;;;;;;;;;4917810;29;2220;-50
2023/05/08 03:55:30;;;;;;;;;;;;;;;;;;4936054;29;2348;-57
2023/05/08 03:58:02;;;;;;;;;;;;;;;;;;4935845;29;1959;-39
2023/05/08 04:00:38;;;;;;;;;;;;;;;;;;4935884;29;1730;-47
2023/05/08 04:03:23;;;;;;;;;;;;;;;;;;4920096;29;2322;-54
2023/05/08 04:05:58;;;;;;;;;;;;;;;;;;4935742;29;1804;-55
2023/05/08 04:08:30;;;;;;;;;;;;;;;;;;4937261;29;1570;-47
2023/05/08 04:11:05;;;;;;;;;;;;;;;;;;4935858;29;1748;-46
2023/05/08 04:13:35;;;;;;;;;;;;;;;;;;4935536;29;2117;-51
2023/05/08 04:16:05;;;;;;;;;;;;;;;;;;4935710;29;1636;-47
2023/05/08 04:18:35;;;;;;;;;;;;;;;;;;4936889;29;2033;-47
2023/05/08 04:21:07;;;;;;;;;;;;;;;;;;4935441;29;1764;-57
2023/05/08 04:23:36;;;;;;;;;;;;;;;;;;4935360;29;2012;-49
2023/05/08 04:26:03;;;;;;;;;;;;;;;;;;4935690;29;2013;-50
2023/05/08 04:28:32;;;;;;;;;;;;;;;;;;4935659;29;2204;-55
2023/05/08 04:31:01;;;;;;;;;;;;;;;;;;4936939;29;2190;-50
2023/05/08 04:33:29;;;;;;;;;;;;;;;;;;4935721;29;2021;-47
2023/05/08 04:35:58;;;;;;;;;;;;;;;;;;4935578;29;2029;-50
2023/05/08 04:38:26;;;;;;;;;;;;;;;;;;4935404;29;2007;-41
2023/05/08 04:40:54;;;;;;;;;;;;;;;;;;4936613;29;2103;-48
2023/05/08 04:43:21;;;;;;;;;;;;;;;;;;4936513;29;1989;-57
2023/05/08 04:45:49;;;;;;;;;;;;;;;;;;4935355;29;1817;-53
2023/05/08 04:48:17;;;;;;;;;;;;;;;;;;4935399;29;1781;-56
2023/05/08 04:50:47;;;;;;;;;;;;;;;;;;4935254;29;1691;-54
2023/05/08 04:53:14;;;;;;;;;;;;;;;;;;4936223;29;2289;-55
2023/05/08 04:55:41;;;;;;;;;;;;;;;;;;4935068;29;1940;-54
2023/05/08 04:58:12;;;;;;;;;;;;;;;;;;4935999;29;1872;-55
2023/05/08 05:00:39;;;;;;;;;;;;;;;;;;4934826;29;2269;-52
2023/05/08 05:03:06;;;;;;;;;;;;;;;;;;4934965;29;1905;-56
2023/05/08 05:05:37;;;;;;;;;;;;;;;;;;4934856;29;1931;-47
2023/05/08 05:08:05;;;;;;;;;;;;;;;;;;4934864;29;1786;-55
2023/05/08 05:10:33;;;;;;;;;;;;;;;;;;4936288;29;2084;-46
2023/05/08 05:13:00;;;;;;;;;;;;;;;;;;4935916;29;1735;-41
2023/05/08 05:15:27;;;;;;;;;;;;;;;;;;4934582;29;2021;-40
2023/05/08 05:17:55;;;;;;;;;;;;;;;;;;4934622;29;1779;-42
2023/05/08 05:20:22;;;;;;;;;;;;;;;;;;4950476;29;1500;-42
2023/05/08 05:22:49;;;;;;;;;;;;;;;;;;4934646;29;2485;-57
2023/05/08 05:25:17;;;;;;;;;;;;;;;;;;4934618;29;2364;-56
2023/05/08 05:27:44;;;;;;;;;;;;;;;;;;4935746;29;2049;-40
2023/05/08 05:30:12;;;;;;;;;;;;;;;;;;4918767;29;1768;-57
2023/05/08 05:32:39;;;;;;;;;;;;;;;;;;4934350;29;1851;-40
2023/05/08 05:35:08;;;;;;;;;;;;;;;;;;4934430;29;2134;-47
2023/05/08 05:37:35;;;;;;;;;;;;;;;;;;4934282;29;1848;-43
2023/05/08 05:40:03;;;;;;;;;;;;;;;;;;4934370;29;2060;-57
2023/05/08 05:42:33;;;;;;;;;;;;;;;;;;4934353;29;2112;-57
2023/05/08 05:45:01;;;;;;;;;;;;;;;;;;4934432;29;2223;-40
2023/05/08 05:47:30;;;;;;;;;;;;;;;;;;4934135;29;2417;-41
2023/05/08 05:49:57;;;;;;;;;;;;;;;;;;4933956;29;1888;-39
2023/05/08 05:52:25;;;;;;;;;;;;;;;;;;4935075;29;2140;-50
2023/05/08 05:54:52;;;;;;;;;;;;;;;;;;4934143;29;2099;-50
2023/05/08 05:57:20;;;;;;;;;;;;;;;;;;4933814;29;2387;-40
2023/05/08 05:59:47;;;;;;;;;;;;;;;;;;4935128;29;2135;-49
2023/05/08 06:02:17;;;;;;;;;;;;;;;;;;4935046;29;1584;-40
2023/05/08 06:04:45;;;;;;;;;;;;;;;;;;4933579;29;2135;-57
2023/05/08 06:07:13;;;;;;;;;;;;;;;;;;4933624;29;2102;-58
2023/05/08 06:09:40;;;;;;;;;;;;;;;;;;4934837;29;1918;-57
2023/05/08 06:12:09;;;;;;;;;;;;;;;;;;4933565;29;1992;-58
2023/05/08 06:14:36;;;;;;;;;;;;;;;;;;4933765;29;1919;-54
2023/05/08 06:17:04;;;;;;;;;;;;;;;;;;4934786;29;1803;-52
2023/05/08 06:19:31;;;;;;;;;;;;;;;;;;4934485;29;1976;-53
2023/05/08 06:21:58;;;;;;;;;;;;;;;;;;4934680;29;1959;-58
2023/05/08 06:24:26;;;;;;;;;;;;;;;;;;4934619;29;2049;-56
2023/05/08 06:26:53;;;;;;;;;;;;;;;;;;4934699;29;1827;-58
2023/05/08 06:29:21;;;;;;;;;;;;;;;;;;4934578;29;1846;-57
2023/05/08 06:31:48;;;;;;;;;;;;;;;;;;4934599;29;1529;-51
2023/05/08 06:34:15;;;;;;;;;;;;;;;;;;4934261;29;2114;-57
2023/05/08 06:36:42;;;;;;;;;;;;;;;;;;4934459;29;1948;-57
2023/05/08 06:39:10;;;;;;;;;;;;;;;;;;4934502;29;1750;-47
2023/05/08 06:41:37;;;;;;;;;;;;;;;;;;4934552;29;1978;-40
2023/05/08 06:44:04;;;;;;;;;;;;;;;;;;4934732;29;2335;-40
2023/05/08 06:46:32;;;;;;;;;;;;;;;;;;4934369;29;1703;-39
2023/05/08 06:48:59;;;;;;;;;;;;;;;;;;4934185;29;2247;-58
2023/05/08 06:51:27;;;;;;;;;;;;;;;;;;4934352;29;1728;-57
2023/05/08 06:53:54;;;;;;;;;;;;;;;;;;4934103;29;1937;-53
2023/05/08 06:56:21;;;;;;;;;;;;;;;;;;4931437;29;1714;-53
2023/05/08 06:58:48;;;;;;;;;;;;;;;;;;4932584;29;2107;-57
2023/05/08 07:01:26;;;;;;;;;;;;;;;;;;4932608;29;1639;-57
2023/05/08 07:03:53;;;;;;;;;;;;;;;;;;4932549;29;1915;-59
2023/05/08 07:06:21;;;;;;;;;;;;;;;;;;4932408;29;1665;-47
2023/05/08 07:08:48;;;;;;;;;;;;;;;;;;4932017;29;1903;-56
2023/05/08 07:11:15;;;;;;;;;;;;;;;;;;4932226;29;1511;-44
2023/05/08 07:13:44;;;;;;;;;;;;;;;;;;4932397;29;2234;-52
2023/05/08 07:16:12;;;;;;;;;;;;;;;;;;4932135;29;1556;-40
2023/05/08 07:18:39;;;;;;;;;;;;;;;;;;4932485;29;1909;-49
2023/05/08 07:21:06;;;;;;;;;;;;;;;;;;4929752;29;1748;-59
2023/05/08 07:23:33;;;;;;;;;;;;;;;;;;4932252;29;1919;-39
2023/05/08 07:26:01;;;;;;;;;;;;;;;;;;4922410;29;1870;-56
2023/05/08 07:28:28;;;;;;;;;;;;;;;;;;4913420;29;1990;-58
2023/05/08 07:30:56;;;;;;;;;;;;;;;;;;4924062;29;1944;-51
2023/05/08 07:33:23;;;;;;;;;;;;;;;;;;4925211;29;1837;-49
2023/05/08 07:35:51;;;;;;;;;;;;;;;;;;4932122;29;1843;-58
2023/05/08 07:38:18;;;;;;;;;;;;;;;;;;4932498;29;1990;-53
2023/05/08 07:40:47;;;;;;;;;;;;;;;;;;4932174;29;1984;-49
2023/05/08 07:43:15;;;;;;;;;;;;;;;;;;4932064;29;2015;-52
2023/05/08 07:45:42;;;;;;;;;;;;;;;;;;4932112;29;1717;-48
2023/05/08 07:48:10;;;;;;;;;;;;;;;;;;4932546;29;1804;-44
2023/05/08 07:50:38;;;;;;;;;;;;;;;;;;4932584;29;1436;-48
2023/05/08 07:53:05;;;;;;;;;;;;;;;;;;4932406;29;1434;-48
2023/05/08 07:55:32;;;;;;;;;;;;;;;;;;4932187;29;1919;-58
2023/05/08 07:57:59;;;;;;;;;;;;;;;;;;4932653;29;1703;-42
2023/05/08 08:00:30;;;;;;;;;;;;;;;;;;4919287;29;1886;-57
2023/05/08 08:02:59;;;;;;;;;;;;;;;;;;4914442;29;1961;-53
2023/05/08 08:05:27;;;;;;;;;;;;;;;;;;4922078;29;1899;-58
2023/05/08 08:07:54;;;;;;;;;;;;;;;;;;4930759;29;1734;-57
2023/05/08 08:10:21;;;;;;;;;;;;;;;;;;4933361;29;2360;-45
2023/05/08 08:12:49;;;;;;;;;;;;;;;;;;4933270;29;1775;-57
2023/05/08 08:15:20;;;;;;;;;;;;;;;;;;4933364;29;1972;-56
2023/05/08 08:17:49;;;;;;;;;;;;;;;;;;4932996;29;1784;-54
2023/05/08 08:20:17;;;;;;;;;;;;;;;;;;4933355;29;1825;-41
2023/05/08 08:22:45;;;;;;;;;;;;;;;;;;4935176;29;2270;-40
2023/05/08 08:25:32;;;;;;;;;;;;;;;;;;4930376;29;1981;-40
2023/05/08 08:28:00;;;;;;;;;;;;;;;;;;4931195;29;1953;-55
2023/05/08 08:30:28;;;;;;;;;;;;;;;;;;4936746;29;1863;-56
2023/05/08 08:32:55;;;;;;;;;;;;;;;;;;4917476;29;1850;-57
2023/05/08 08:35:28;;;;;;;;;;;;;;;;;;4916139;29;1994;-57
2023/05/08 08:37:55;;;;;;;;;;;;;;;;;;4917762;29;1942;-58
2023/05/08 08:40:23;;;;;;;;;;;;;;;;;;4917546;29;1980;-56
2023/05/08 08:42:50;;;;;;;;;;;;;;;;;;4920116;29;1626;-55
2023/05/08 08:45:17;;;;;;;;;;;;;;;;;;4936096;29;2308;-50
2023/05/08 08:47:47;;;;;;;;;;;;;;;;;;4936724;29;2062;-56
2023/05/08 08:50:14;;;;;;;;;;;;;;;;;;4936305;29;2168;-58
2023/05/08 08:52:55;;;;;;;;;;;;;;;;;;4936470;29;1821;-52
2023/05/08 08:55:24;;;;;;;;;;;;;;;;;;4935953;29;2076;-57
2023/05/08 08:58:02;;;;;;;;;;;;;;;;;;4935376;29;1854;-55
2023/05/08 09:00:31;;;;;;;;;;;;;;;;;;4935696;29;2015;-59
2023/05/08 09:02:58;;;;;;;;;;;;;;;;;;4936269;29;1954;-59
2023/05/08 09:05:26;;;;;;;;;;;;;;;;;;4936053;29;1906;-53
2023/05/08 09:07:53;;;;;;;;;;;;;;;;;;4936111;29;1853;-57
2023/05/08 09:10:21;;;;;;;;;;;;;;;;;;4935926;29;2069;-53
2023/05/08 09:12:49;;;;;;;;;;;;;;;;;;4919074;29;1749;-51
2023/05/08 09:15:16;;;;;;;;;;;;;;;;;;4918066;29;1682;-58
2023/05/08 09:17:43;;;;;;;;;;;;;;;;;;4936091;29;1816;-57
2023/05/08 09:20:12;;;;;;;;;;;;;;;;;;4936054;29;2057;-58
2023/05/08 09:22:41;;;;;;;;;;;;;;;;;;4935989;29;1810;-56
2023/05/08 09:25:08;;;;;;;;;;;;;;;;;;4935060;29;1986;-58
2023/05/08 09:27:36;;;;;;;;;;;;;;;;;;4936059;29;2067;-50
2023/05/08 09:30:07;;;;;;;;;;;;;;;;;;4935435;29;1876;-54
2023/05/08 09:32:39;;;;;;;;;;;;;;;;;;4934902;29;2015;-58
2023/05/08 09:35:07;;;;;;;;;;;;;;;;;;4935803;29;1557;-59
2023/05/08 09:37:37;;;;;;;;;;;;;;;;;;4935319;29;1923;-58
2023/05/08 09:40:16;;;;;;;;;;;;;;;;;;4935575;29;1935;-58
2023/05/08 09:42:44;;;;;;;;;;;;;;;;;;4935392;29;2281;-42
2023/05/08 09:45:24;;;;;;;;;;;;;;;;;;4934477;29;1911;-58
2023/05/08 09:47:52;;;;;;;;;;;;;;;;;;4935166;29;1987;-58
2023/05/08 09:50:19;;;;;;;;;;;;;;;;;;4935404;29;2020;-58
2023/05/08 09:52:47;;;;;;;;;;;;;;;;;;4935301;29;1700;-40
2023/05/08 09:55:14;;;;;;;;;;;;;;;;;;4931119;29;2100;-48
2023/05/08 09:57:59;;;;;;;;;;;;;;;;;;4933841;29;2269;-58
2023/05/08 10:00:28;;;;;;;;;;;;;;;;;;4918419;29;1507;-59
2023/05/08 10:03:02;;;;;;;;;;;;;;;;;;4916007;29;2315;-58
2023/05/08 10:05:34;;;;;;;;;;;;;;;;;;4933918;29;1987;-58
2023/05/08 10:08:17;;;;;;;;;;;;;;;;;;4934056;29;2059;-59
2023/05/08 10:10:46;;;;;;;;;;;;;;;;;;4935019;29;1724;-41
2023/05/08 10:13:13;;;;;;;;;;;;;;;;;;4935080;29;1985;-59
2023/05/08 10:15:42;;;;;;;;;;;;;;;;;;4934851;29;1994;-58
2023/05/08 10:18:10;;;;;;;;;;;;;;;;;;4934674;29;1701;-58
2023/05/08 10:20:39;;;;;;;;;;;;;;;;;;4934843;29;2036;-54
2023/05/08 10:23:10;;;;;;;;;;;;;;;;;;4934857;29;1514;-59
2023/05/08 10:25:41;;;;;;;;;;;;;;;;;;4934532;29;2008;-58
2023/05/08 10:28:15;;;;;;;;;;;;;;;;;;4934959;29;2047;-59
2023/05/08 10:30:46;;;;;;;;;;;;;;;;;;4934955;29;2008;-51
2023/05/08 10:33:14;;;;;;;;;;;;;;;;;;4934895;29;2011;-55
2023/05/08 10:35:43;;;;;;;;;;;;;;;;;;4934659;29;2448;-59
2023/05/08 10:38:11;;;;;;;;;;;;;;;;;;4934389;29;1738;-55
2023/05/08 10:40:38;;;;;;;;;;;;;;;;;;4934490;29;1695;-40
2023/05/08 10:43:06;;;;;;;;;;;;;;;;;;4934325;29;2077;-40
2023/05/08 10:45:33;;;;;;;;;;;;;;;;;;4933851;29;1914;-41
2023/05/08 10:48:17;;;;;;;;;;;;;;;;;;4934408;29;1854;-41
2023/05/08 10:50:56;;;;;;;;;;;;;;;;;;4934540;29;2005;-58
2023/05/08 10:53:30;;;;;;;;;;;;;;;;;;4934447;29;1910;-55
2023/05/08 10:55:58;;;;;;;;;;;;;;;;;;4934209;29;2173;-59
2023/05/08 10:58:29;;;;;;;;;;;;;;;;;;4934370;29;2081;-59
2023/05/08 11:00:59;;;;;;;;;;;;;;;;;;4934131;29;1670;-59
2023/05/08 11:03:27;;;;;;;;;;;;;;;;;;4934355;29;2003;-59
2023/05/08 11:05:59;;;;;;;;;;;;;;;;;;4934186;29;1903;-59
2023/05/08 11:08:27;;;;;;;;;;;;;;;;;;4934112;29;1898;-59
2023/05/08 11:10:58;;;;;;;;;;;;;;;;;;4934196;29;1844;-58
2023/05/08 11:13:31;;;;;;;;;;;;;;;;;;4933897;29;2180;-58
2023/05/08 11:15:58;;;;;;;;;;;;;;;;;;4934113;29;1917;-59
2023/05/08 11:18:25;;;;;;;;;;;;;;;;;;4933831;29;2091;-41
2023/05/08 11:20:59;;;;;;;;;;;;;;;;;;4933993;29;1610;-41
2023/05/08 11:23:27;;;;;;;;;;;;;;;;;;4932974;29;1764;-59
2023/05/08 11:26:05;;;;;;;;;;;;;;;;;;4932808;29;2196;-59
2023/05/08 11:28:36;;;;;;;;;;;;;;;;;;4933357;29;1951;-47
2023/05/08 11:31:04;;;;;;;;;;;;;;;;;;4933274;29;2055;-59
2023/05/08 11:33:31;;;;;;;;;;;;;;;;;;4933339;29;1623;-59
2023/05/08 11:36:24;;;;;;;;;;;;;;;;;;4932964;29;1898;-59
2023/05/08 11:39:07;;;;;;;;;;;;;;;;;;4933024;29;2154;-45
2023/05/08 11:41:34;;;;;;;;;;;;;;;;;;4933220;29;1493;-61
2023/05/08 11:44:03;;;;;;;;;;;;;;;;;;4933155;29;2103;-59
2023/05/08 11:46:52;;;;;;;;;;;;;;;;;;4933357;29;2052;-59
2023/05/08 11:49:21;;;;;;;;;;;;;;;;;;4933382;29;1788;-58
2023/05/08 11:51:56;;;;;;;;;;;;;;;;;;4932987;29;1857;-53
2023/05/08 11:54:24;;;;;;;;;;;;;;;;;;4914251;29;2247;-56
2023/05/08 11:56:53;;;;;;;;;;;;;;;;;;4917187;29;1611;-57
2023/05/08 11:59:22;;;;;;;;;;;;;;;;;;4917726;29;1872;-59
2023/05/08 12:01:50;;;;;;;;;;;;;;;;;;4917857;29;1738;-56
2023/05/08 12:04:20;;;;;;;;;;;;;;;;;;4917759;29;2224;-55
2023/05/08 12:06:50;;;;;;;;;;;;;;;;;;4917951;29;2138;-59
2023/05/08 12:09:19;;;;;;;;;;;;;;;;;;4917994;29;1211;-58
2023/05/08 12:11:46;;;;;;;;;;;;;;;;;;4917285;29;2182;-59
2023/05/08 12:14:16;;;;;;;;;;;;;;;;;;4924850;29;1866;-57
2023/05/08 12:16:43;;;;;;;;;;;;;;;;;;4936349;29;2167;-59
2023/05/08 12:19:11;;;;;;;;;;;;;;;;;;4936460;29;2093;-59
2023/05/08 12:21:45;;;;;;;;;;;;;;;;;;4936287;29;1626;-59
2023/05/08 12:24:12;;;;;;;;;;;;;;;;;;4936011;29;1974;-59
2023/05/08 12:26:39;;;;;;;;;;;;;;;;;;4935425;29;1792;-59
2023/05/08 12:29:07;;;;;;;;;;;;;;;;;;4936325;29;2184;-59
2023/05/08 12:31:34;;;;;;;;;;;;;;;;;;4936404;29;2096;-59
2023/05/08 12:34:03;;;;;;;;;;;;;;;;;;4936288;29;1726;-41
2023/05/08 12:36:37;;;;;;;;;;;;;;;;;;4936119;29;1843;-59
2023/05/08 12:39:11;;;;;;;;;;;;;;;;;;4936106;29;2086;-58
2023/05/08 12:41:46;;;;;;;;;;;;;;;;;;4935737;29;1887;-59
2023/05/08 12:44:21;;;;;;;;;;;;;;;;;;4935764;29;2135;-59
2023/05/08 12:46:49;;;;;;;;;;;;;;;;;;4934797;29;1809;-59
2023/05/08 12:49:24;;;;;;;;;;;;;;;;;;4935928;29;1917;-60
2023/05/08 12:51:58;;;;;;;;;;;;;;;;;;4935832;29;2001;-58
2023/05/08 12:54:36;;;;;;;;;;;;;;;;;;4916967;29;1890;-59
2023/05/08 12:57:13;;;;;;;;;;;;;;;;;;4916736;29;1854;-59
2023/05/08 12:59:40;;;;;;;;;;;;;;;;;;4916256;29;1693;-59
2023/05/08 13:02:25;;;;;;;;;;;;;;;;;;4916697;29;2025;-59
2023/05/08 13:04:54;;;;;;;;;;;;;;;;;;4916396;29;1976;-49
2023/05/08 13:07:22;;;;;;;;;;;;;;;;;;4916089;29;1942;-58
2023/05/08 13:09:59;;;;;;;;;;;;;;;;;;4916696;29;1441;-57
2023/05/08 13:12:27;;;;;;;;;;;;;;;;;;4933896;29;1518;-59
2023/05/08 13:14:54;;;;;;;;;;;;;;;;;;4935408;29;1512;-55
2023/05/08 13:17:21;;;;;;;;;;;;;;;;;;4934227;29;2023;-58
2023/05/08 13:19:49;;;;;;;;;;;;;;;;;;4935354;29;2093;-58
2023/05/08 13:22:16;;;;;;;;;;;;;;;;;;4935439;29;1930;-56
2023/05/08 13:24:43;;;;;;;;;;;;;;;;;;4935147;29;1975;-58
2023/05/08 13:27:12;;;;;;;;;;;;;;;;;;4935078;29;1897;-55
2023/05/08 13:29:39;;;;;;;;;;;;;;;;;;4935024;29;1856;-57
2023/05/08 13:32:06;;;;;;;;;;;;;;;;;;4934130;29;1942;-56
2023/05/08 13:34:34;;;;;;;;;;;;;;;;;;4934681;29;1979;-58
2023/05/08 13:37:05;;;;;;;;;;;;;;;;;;4935003;29;1863;-58
2023/05/08 13:39:36;;;;;;;;;;;;;;;;;;4935011;29;1884;-58
2023/05/08 13:42:03;;;;;;;;;;;;;;;;;;4935189;29;1994;-58
2023/05/08 13:44:30;;;;;;;;;;;;;;;;;;4934900;29;1915;-49
2023/05/08 13:46:57;;;;;;;;;;;;;;;;;;4933625;29;2412;-58
2023/05/08 13:49:26;;;;;;;;;;;;;;;;;;4934831;29;1690;-44
2023/05/08 13:51:53;;;;;;;;;;;;;;;;;;4934710;29;2129;-58
2023/05/08 13:54:22;;;;;;;;;;;;;;;;;;4916103;29;1833;-58
2023/05/08 13:56:50;;;;;;;;;;;;;;;;;;4915791;29;2248;-58
2023/05/08 13:59:17;;;;;;;;;;;;;;;;;;4915775;29;1848;-58
2023/05/08 14:01:44;;;;;;;;;;;;;;;;;;4915533;29;2003;-59
2023/05/08 14:04:11;;;;;;;;;;;;;;;;;;4915489;29;2079;-55
2023/05/08 14:06:39;;;;;;;;;;;;;;;;;;4915295;29;2018;-55
2023/05/08 14:09:06;;;;;;;;;;;;;;;;;;4915597;29;2005;-58
2023/05/08 14:11:33;;;;;;;;;;;;;;;;;;4915389;29;2168;-58
2023/05/08 14:14:00;;;;;;;;;;;;;;;;;;4915342;29;2226;-58
2023/05/08 14:16:27;;;;;;;;;;;;;;;;;;4915200;29;2209;-58
2023/05/08 14:18:55;;;;;;;;;;;;;;;;;;4915058;29;1899;-59
2023/05/08 14:21:22;;;;;;;;;;;;;;;;;;4933466;29;2188;-58
2023/05/08 14:23:49;;;;;;;;;;;;;;;;;;4934109;29;1955;-59
2023/05/08 14:26:16;;;;;;;;;;;;;;;;;;4934185;29;1975;-59
2023/05/08 14:28:43;;;;;;;;;;;;;;;;;;4933818;29;1842;-59
2023/05/08 14:31:11;;;;;;;;;;;;;;;;;;4934264;29;1645;-57
2023/05/08 14:33:38;;;;;;;;;;;;;;;;;;4933757;29;1723;-57
2023/05/08 14:36:05;;;;;;;;;;;;;;;;;;4934049;29;1849;-59
2023/05/08 14:38:32;;;;;;;;;;;;;;;;;;4934054;29;1808;-58
2023/05/08 14:41:00;;;;;;;;;;;;;;;;;;4933745;29;1841;-59
2023/05/08 14:43:30;;;;;;;;;;;;;;;;;;4933974;29;2061;-58
2023/05/08 14:45:57;;;;;;;;;;;;;;;;;;4933550;29;2239;-50
2023/05/08 14:48:26;;;;;;;;;;;;;;;;;;4933833;29;2319;-59
2023/05/08 14:50:53;;;;;;;;;;;;;;;;;;4933908;29;1775;-59
2023/05/08 14:53:20;;;;;;;;;;;;;;;;;;4933608;29;1910;-59
2023/05/08 14:55:48;;;;;;;;;;;;;;;;;;4933184;29;1735;-59
2023/05/08 14:58:15;;;;;;;;;;;;;;;;;;4933533;29;1413;-59
2023/05/08 15:00:42;;;;;;;;;;;;;;;;;;4933239;29;2080;-58
2023/05/08 15:03:10;;;;;;;;;;;;;;;;;;4933634;29;1949;-57
2023/05/08 15:05:37;;;;;;;;;;;;;;;;;;4933532;29;1920;-55
2023/05/08 15:08:04;;;;;;;;;;;;;;;;;;4933595;29;1911;-60
2023/05/08 15:10:31;;;;;;;;;;;;;;;;;;4933480;29;1974;-49
2023/05/08 15:12:59;;;;;;;;;;;;;;;;;;4933041;29;1808;-48
2023/05/08 15:15:27;;;;;;;;;;;;;;;;;;4933501;29;1713;-53
2023/05/08 15:17:54;;;;;;;;;;;;;;;;;;4933399;29;2009;-46
2023/05/08 15:20:22;;;;;;;;;;;;;;;;;;4933332;29;1997;-41
2023/05/08 15:22:49;;;;;;;;;;;;;;;;;;4933185;29;1990;-58
2023/05/08 15:25:17;;;;;;;;;;;;;;;;;;4933316;29;1909;-59
2023/05/08 15:27:51;;;;;;;;;;;;;;;;;;4932865;29;1919;-57
2023/05/08 15:30:19;;;;;;;;;;;;;;;;;;4932758;29;2381;-54
2023/05/08 15:32:46;;;;;;;;;;;;;;;;;;4937071;29;1986;-58
2023/05/08 15:35:14;;;;;;;;;;;;;;;;;;4937114;29;1992;-41
2023/05/08 15:37:42;;;;;;;;;;;;;;;;;;4937070;29;1730;-59
2023/05/08 15:40:09;;;;;;;;;;;;;;;;;;4937063;29;1412;-58
2023/05/08 15:42:36;;;;;;;;;;;;;;;;;;4937160;29;2130;-60
2023/05/08 15:45:04;;;;;;;;;;;;;;;;;;4937226;29;1955;-55
2023/05/08 15:47:31;;;;;;;;;;;;;;;;;;4937047;29;1931;-59
2023/05/08 15:49:58;;;;;;;;;;;;;;;;;;4936918;29;1740;-57
2023/05/08 15:52:25;;;;;;;;;;;;;;;;;;4937075;29;1766;-57
2023/05/08 15:54:53;;;;;;;;;;;;;;;;;;4936542;29;1760;-58
2023/05/08 15:57:20;;;;;;;;;;;;;;;;;;4936998;29;2083;-60
2023/05/08 15:59:47;;;;;;;;;;;;;;;;;;4936817;29;1596;-56
2023/05/08 16:02:14;;;;;;;;;;;;;;;;;;4936542;29;2252;-60
2023/05/08 16:04:41;;;;;;;;;;;;;;;;;;4936378;29;1820;-60
2023/05/08 16:07:08;;;;;;;;;;;;;;;;;;4937064;29;1977;-58
2023/05/08 16:09:36;;;;;;;;;;;;;;;;;;4936690;29;1982;-59
2023/05/08 16:12:03;;;;;;;;;;;;;;;;;;4936461;29;2186;-59
2023/05/08 16:14:30;;;;;;;;;;;;;;;;;;4936523;29;1852;-48
2023/05/08 16:16:57;;;;;;;;;;;;;;;;;;4936625;29;2029;-59
2023/05/08 16:19:25;;;;;;;;;;;;;;;;;;4936291;29;1898;-51
2023/05/08 16:21:52;;;;;;;;;;;;;;;;;;4935993;29;1858;-58
2023/05/08 16:24:19;;;;;;;;;;;;;;;;;;4936321;29;1452;-47
2023/05/08 16:26:46;;;;;;;;;;;;;;;;;;4936020;29;1907;-58
2023/05/08 16:29:13;;;;;;;;;;;;;;;;;;4936500;29;2150;-60
2023/05/08 16:31:40;;;;;;;;;;;;;;;;;;4936190;29;2166;-57
2023/05/08 16:34:08;;;;;;;;;;;;;;;;;;4936125;29;2050;-52
2023/05/08 16:36:37;;;;;;;;;;;;;;;;;;4936334;29;1829;-60
2023/05/08 16:39:04;;;;;;;;;;;;;;;;;;4936180;29;1564;-60
2023/05/08 16:41:31;;;;;;;;;;;;;;;;;;4934186;29;1998;-49
2023/05/08 16:43:59;;;;;;;;;;;;;;;;;;4935816;29;1907;-59
2023/05/08 16:46:27;;;;;;;;;;;;;;;;;;4934779;29;1962;-51
2023/05/08 16:48:56;;;;;;;;;;;;;;;;;;4935693;29;1856;-60
2023/05/08 16:51:23;;;;;;;;;;;;;;;;;;4935969;29;1934;-59
2023/05/08 16:53:50;;;;;;;;;;;;;;;;;;4935612;29;1946;-45
2023/05/08 16:56:17;;;;;;;;;;;;;;;;;;4935799;29;1477;-45
2023/05/08 16:58:46;;;;;;;;;;;;;;;;;;4935694;29;2118;-51
2023/05/08 17:01:13;;;;;;;;;;;;;;;;;;4935948;29;1778;-53
2023/05/08 17:03:41;;;;;;;;;;;;;;;;;;4935520;29;1727;-39
2023/05/08 17:06:08;;;;;;;;;;;;;;;;;;4935689;29;1976;-43
2023/05/08 17:08:36;;;;;;;;;;;;;;;;;;4935578;29;1739;-40
2023/05/08 17:11:03;;;;;;;;;;;;;;;;;;4935375;29;1702;-42
2023/05/08 17:13:30;;;;;;;;;;;;;;;;;;4935793;29;1858;-59
2023/05/08 17:15:57;;;;;;;;;;;;;;;;;;4935008;29;1984;-59
2023/05/08 17:18:25;;;;;;;;;;;;;;;;;;4935463;29;2060;-39